sensor_id;sensor_type;location;lat;lon;timestamp;temperature;humidity
21171;DHT22;10743;52.160;20.910;2023-03-24T00:00:31;27.90;33.80
21171;DHT22;10743;52.160;20.910;2023-03-24T00:02:59;27.80;33.80
21171;DHT22;10743;52.160;20.910;2023-03-24T00:05:28;27.80;33.90
21171;DHT22;10743;52.160;20.910;2023-03-24T00:07:56;27.80;33.90
21171;DHT22;10743;52.160;20.910;2023-03-24T00:10:28;27.70;33.90
21171;DHT22;10743;52.160;20.910;2023-03-24T00:13:00;27.70;34.00
21171;DHT22;10743;52.160;20.910;2023-03-24T00:15:27;27.60;33.90
21171;DHT22;10743;52.160;20.910;2023-03-24T00:17:55;27.60;33.90
21171;DHT22;10743;52.160;20.910;2023-03-24T00:20:25;27.50;34.00
21171;DHT22;10743;52.160;20.910;2023-03-24T00:22:54;27.50;34.20
21171;DHT22;10743;52.160;20.910;2023-03-24T00:25:27;27.50;34.20
21171;DHT22;10743;52.160;20.910;2023-03-24T00:28:00;27.40;34.20
21171;DHT22;10743;52.160;20.910;2023-03-24T00:30:28;27.40;34.30
21171;DHT22;10743;52.160;20.910;2023-03-24T00:32:55;27.30;34.30
21171;DHT22;10743;52.160;20.910;2023-03-24T00:35:24;27.30;34.40
21171;DHT22;10743;52.160;20.910;2023-03-24T00:37:52;27.30;34.50
21171;DHT22;10743;52.160;20.910;2023-03-24T00:40:20;27.20;34.50
21171;DHT22;10743;52.160;20.910;2023-03-24T00:42:48;27.20;34.50
21171;DHT22;10743;52.160;20.910;2023-03-24T00:45:18;27.10;34.50
21171;DHT22;10743;52.160;20.910;2023-03-24T00:47:49;27.10;34.70
21171;DHT22;10743;52.160;20.910;2023-03-24T00:50:20;27.10;34.70
21171;DHT22;10743;52.160;20.910;2023-03-24T00:52:54;27.10;34.70
21171;DHT22;10743;52.160;20.910;2023-03-24T00:55:22;27.00;34.60
21171;DHT22;10743;52.160;20.910;2023-03-24T00:57:49;27.00;34.70
21171;DHT22;10743;52.160;20.910;2023-03-24T01:00:22;27.00;34.70
21171;DHT22;10743;52.160;20.910;2023-03-24T01:02:55;26.90;35.40
21171;DHT22;10743;52.160;20.910;2023-03-24T01:05:26;26.90;34.80
21171;DHT22;10743;52.160;20.910;2023-03-24T01:07:57;26.80;34.80
21171;DHT22;10743;52.160;20.910;2023-03-24T01:10:32;26.80;34.90
21171;DHT22;10743;52.160;20.910;2023-03-24T01:13:01;26.70;34.90
21171;DHT22;10743;52.160;20.910;2023-03-24T01:15:32;26.70;35.00
21171;DHT22;10743;52.160;20.910;2023-03-24T01:18:00;26.60;35.00
21171;DHT22;10743;52.160;20.910;2023-03-24T01:20:29;26.60;35.20
21171;DHT22;10743;52.160;20.910;2023-03-24T01:23:01;26.60;35.20
21171;DHT22;10743;52.160;20.910;2023-03-24T01:25:31;26.50;35.30
21171;DHT22;10743;52.160;20.910;2023-03-24T01:27:58;26.50;35.30
21171;DHT22;10743;52.160;20.910;2023-03-24T01:30:27;26.40;35.40
21171;DHT22;10743;52.160;20.910;2023-03-24T01:32:55;26.40;35.60
21171;DHT22;10743;52.160;20.910;2023-03-24T01:35:24;26.30;35.60
21171;DHT22;10743;52.160;20.910;2023-03-24T01:37:55;26.30;35.60
21171;DHT22;10743;52.160;20.910;2023-03-24T01:40:26;26.20;35.50
21171;DHT22;10743;52.160;20.910;2023-03-24T01:42:54;26.20;35.50
21171;DHT22;10743;52.160;20.910;2023-03-24T01:45:49;26.10;35.50
21171;DHT22;10743;52.160;20.910;2023-03-24T01:56:46;26.00;36.50
21171;DHT22;10743;52.160;20.910;2023-03-24T01:59:19;25.90;35.80
21171;DHT22;10743;52.160;20.910;2023-03-24T02:02:08;25.90;35.90
21171;DHT22;10743;52.160;20.910;2023-03-24T02:04:43;25.90;36.10
21171;DHT22;10743;52.160;20.910;2023-03-24T02:07:56;25.80;36.00
21171;DHT22;10743;52.160;20.910;2023-03-24T02:10:30;25.80;36.30
21171;DHT22;10743;52.160;20.910;2023-03-24T02:12:59;25.80;36.40
21171;DHT22;10743;52.160;20.910;2023-03-24T02:15:28;25.70;36.40
21171;DHT22;10743;52.160;20.910;2023-03-24T02:18:14;25.70;36.50
21171;DHT22;10743;52.160;20.910;2023-03-24T02:27:07;25.70;36.40
21171;DHT22;10743;52.160;20.910;2023-03-24T02:36:09;25.60;36.60
21171;DHT22;10743;52.160;20.910;2023-03-24T02:39:35;25.60;36.70
21171;DHT22;10743;52.160;20.910;2023-03-24T02:42:28;25.60;36.50
21171;DHT22;10743;52.160;20.910;2023-03-24T02:45:25;25.60;36.60
21171;DHT22;10743;52.160;20.910;2023-03-24T02:48:18;25.60;37.30
21171;DHT22;10743;52.160;20.910;2023-03-24T02:50:53;25.60;36.60
21171;DHT22;10743;52.160;20.910;2023-03-24T02:53:50;25.60;36.60
21171;DHT22;10743;52.160;20.910;2023-03-24T02:56:37;25.50;36.50
21171;DHT22;10743;52.160;20.910;2023-03-24T02:59:58;25.50;36.50
21171;DHT22;10743;52.160;20.910;2023-03-24T03:03:24;25.50;36.70
21171;DHT22;10743;52.160;20.910;2023-03-24T03:06:06;25.50;36.80
21171;DHT22;10743;52.160;20.910;2023-03-24T03:08:38;25.50;36.80
21171;DHT22;10743;52.160;20.910;2023-03-24T03:11:08;25.50;36.90
21171;DHT22;10743;52.160;20.910;2023-03-24T03:13:43;25.40;36.80
21171;DHT22;10743;52.160;20.910;2023-03-24T03:16:34;25.40;36.90
21171;DHT22;10743;52.160;20.910;2023-03-24T03:19:15;25.40;36.90
21171;DHT22;10743;52.160;20.910;2023-03-24T03:21:47;25.40;37.00
21171;DHT22;10743;52.160;20.910;2023-03-24T03:24:20;25.40;36.90
21171;DHT22;10743;52.160;20.910;2023-03-24T03:27:06;25.30;36.90
21171;DHT22;10743;52.160;20.910;2023-03-24T05:27:37;24.80;37.40
21171;DHT22;10743;52.160;20.910;2023-03-24T05:30:23;24.80;37.60
21171;DHT22;10743;52.160;20.910;2023-03-24T05:32:55;24.80;37.70
21171;DHT22;10743;52.160;20.910;2023-03-24T05:35:22;24.80;37.80
21171;DHT22;10743;52.160;20.910;2023-03-24T05:37:51;24.80;38.10
21171;DHT22;10743;52.160;20.910;2023-03-24T05:40:18;24.80;38.20
21171;DHT22;10743;52.160;20.910;2023-03-24T05:43:08;24.80;38.50
21171;DHT22;10743;52.160;20.910;2023-03-24T05:45:43;24.90;38.80
21171;DHT22;10743;52.160;20.910;2023-03-24T05:48:21;25.00;38.90
21171;DHT22;10743;52.160;20.910;2023-03-24T05:51:07;25.00;38.90
21171;DHT22;10743;52.160;20.910;2023-03-24T05:53:34;25.10;39.10
21171;DHT22;10743;52.160;20.910;2023-03-24T05:56:12;25.10;39.00
21171;DHT22;10743;52.160;20.910;2023-03-24T05:59:03;25.10;39.10
21171;DHT22;10743;52.160;20.910;2023-03-24T06:01:49;25.20;39.20
21171;DHT22;10743;52.160;20.910;2023-03-24T06:04:25;25.20;39.10
21171;DHT22;10743;52.160;20.910;2023-03-24T06:07:02;25.30;39.20
21171;DHT22;10743;52.160;20.910;2023-03-24T06:09:33;25.40;39.10
21171;DHT22;10743;52.160;20.910;2023-03-24T06:12:08;25.50;39.10
21171;DHT22;10743;52.160;20.910;2023-03-24T06:14:42;25.50;39.00
21171;DHT22;10743;52.160;20.910;2023-03-24T06:17:12;25.60;39.00
21171;DHT22;10743;52.160;20.910;2023-03-24T06:19:44;25.70;38.90
21171;DHT22;10743;52.160;20.910;2023-03-24T06:22:23;25.80;38.90
21171;DHT22;10743;52.160;20.910;2023-03-24T06:24:50;25.80;39.00
21171;DHT22;10743;52.160;20.910;2023-03-24T06:27:19;25.80;38.90
21171;DHT22;10743;52.160;20.910;2023-03-24T06:29:52;25.90;38.90
21171;DHT22;10743;52.160;20.910;2023-03-24T06:32:20;25.90;38.80
21171;DHT22;10743;52.160;20.910;2023-03-24T06:34:47;26.00;38.90
21171;DHT22;10743;52.160;20.910;2023-03-24T06:37:37;26.00;39.40
21171;DHT22;10743;52.160;20.910;2023-03-24T06:40:07;26.10;38.70
21171;DHT22;10743;52.160;20.910;2023-03-24T06:42:42;26.20;38.70
21171;DHT22;10743;52.160;20.910;2023-03-24T06:45:10;26.20;38.60
21171;DHT22;10743;52.160;20.910;2023-03-24T06:47:37;26.30;38.50
21171;DHT22;10743;52.160;20.910;2023-03-24T06:50:07;26.30;38.40
21171;DHT22;10743;52.160;20.910;2023-03-24T06:52:34;26.40;38.40
21171;DHT22;10743;52.160;20.910;2023-03-24T06:55:03;26.40;38.20
21171;DHT22;10743;52.160;20.910;2023-03-24T06:57:30;26.50;38.20
21171;DHT22;10743;52.160;20.910;2023-03-24T07:00:30;26.60;37.90
21171;DHT22;10743;52.160;20.910;2023-03-24T07:03:21;26.60;38.00
21171;DHT22;10743;52.160;20.910;2023-03-24T07:06:18;26.60;37.80
21171;DHT22;10743;52.160;20.910;2023-03-24T07:08:52;26.70;37.80
21171;DHT22;10743;52.160;20.910;2023-03-24T07:11:22;26.70;37.70
21171;DHT22;10743;52.160;20.910;2023-03-24T07:13:56;25.80;37.10
21171;DHT22;10743;52.160;20.910;2023-03-24T07:16:23;26.80;37.70
21171;DHT22;10743;52.160;20.910;2023-03-24T07:19:00;26.80;37.70
21171;DHT22;10743;52.160;20.910;2023-03-24T07:21:32;26.90;37.70
21171;DHT22;10743;52.160;20.910;2023-03-24T07:23:59;26.90;37.70
21171;DHT22;10743;52.160;20.910;2023-03-24T07:26:43;26.90;37.90
21171;DHT22;10743;52.160;20.910;2023-03-24T07:29:19;26.90;38.00
21171;DHT22;10743;52.160;20.910;2023-03-24T07:32:00;27.00;38.20
21171;DHT22;10743;52.160;20.910;2023-03-24T07:34:27;27.00;38.20
21171;DHT22;10743;52.160;20.910;2023-03-24T07:36:54;27.00;38.30
21171;DHT22;10743;52.160;20.910;2023-03-24T07:39:22;27.00;38.40
21171;DHT22;10743;52.160;20.910;2023-03-24T07:41:50;27.00;38.70
21171;DHT22;10743;52.160;20.910;2023-03-24T07:44:27;27.00;38.80
21171;DHT22;10743;52.160;20.910;2023-03-24T07:46:57;27.00;39.10
21171;DHT22;10743;52.160;20.910;2023-03-24T07:49:24;27.00;38.90
21171;DHT22;10743;52.160;20.910;2023-03-24T07:52:01;27.10;39.10
21171;DHT22;10743;52.160;20.910;2023-03-24T07:54:44;27.10;38.90
21171;DHT22;10743;52.160;20.910;2023-03-24T07:57:25;27.10;39.20
21171;DHT22;10743;52.160;20.910;2023-03-24T07:59:52;27.10;39.50
21171;DHT22;10743;52.160;20.910;2023-03-24T08:02:38;27.10;39.70
21171;DHT22;10743;52.160;20.910;2023-03-24T08:05:41;27.20;39.80
21171;DHT22;10743;52.160;20.910;2023-03-24T08:08:17;27.20;40.70
21171;DHT22;10743;52.160;20.910;2023-03-24T08:10:44;27.20;40.10
21171;DHT22;10743;52.160;20.910;2023-03-24T08:13:12;27.30;40.30
21171;DHT22;10743;52.160;20.910;2023-03-24T08:15:39;27.30;40.10
21171;DHT22;10743;52.160;20.910;2023-03-24T08:18:06;27.30;40.30
21171;DHT22;10743;52.160;20.910;2023-03-24T08:20:33;27.30;40.30
21171;DHT22;10743;52.160;20.910;2023-03-24T08:23:00;27.30;40.60
21171;DHT22;10743;52.160;20.910;2023-03-24T08:25:30;27.30;40.50
21171;DHT22;10743;52.160;20.910;2023-03-24T08:27:57;27.40;40.60
21171;DHT22;10743;52.160;20.910;2023-03-24T08:30:25;27.30;40.90
21171;DHT22;10743;52.160;20.910;2023-03-24T08:33:00;27.40;40.80
21171;DHT22;10743;52.160;20.910;2023-03-24T08:35:34;27.40;40.70
21171;DHT22;10743;52.160;20.910;2023-03-24T08:38:06;27.40;40.60
21171;DHT22;10743;52.160;20.910;2023-03-24T08:40:35;27.40;40.50
21171;DHT22;10743;52.160;20.910;2023-03-24T08:43:06;27.40;40.60
21171;DHT22;10743;52.160;20.910;2023-03-24T08:45:35;27.50;40.50
21171;DHT22;10743;52.160;20.910;2023-03-24T08:48:05;27.50;40.50
21171;DHT22;10743;52.160;20.910;2023-03-24T08:50:36;27.50;40.40
21171;DHT22;10743;52.160;20.910;2023-03-24T08:53:05;27.50;40.50
21171;DHT22;10743;52.160;20.910;2023-03-24T08:55:34;27.50;40.40
21171;DHT22;10743;52.160;20.910;2023-03-24T08:58:03;27.50;40.30
21171;DHT22;10743;52.160;20.910;2023-03-24T09:00:30;27.50;40.30
21171;DHT22;10743;52.160;20.910;2023-03-24T09:02:57;27.50;40.40
21171;DHT22;10743;52.160;20.910;2023-03-24T09:05:27;27.50;40.60
21171;DHT22;10743;52.160;20.910;2023-03-24T09:08:10;27.60;40.90
21171;DHT22;10743;52.160;20.910;2023-03-24T09:10:39;27.60;40.70
21171;DHT22;10743;52.160;20.910;2023-03-24T09:13:07;27.70;40.70
21171;DHT22;10743;52.160;20.910;2023-03-24T09:15:34;27.70;41.10
21171;DHT22;10743;52.160;20.910;2023-03-24T09:18:01;27.80;41.00
21171;DHT22;10743;52.160;20.910;2023-03-24T09:20:29;27.90;41.10
21171;DHT22;10743;52.160;20.910;2023-03-24T09:22:56;28.10;40.50
21171;DHT22;10743;52.160;20.910;2023-03-24T09:25:23;28.10;40.40
21171;DHT22;10743;52.160;20.910;2023-03-24T09:27:50;28.10;40.50
21171;DHT22;10743;52.160;20.910;2023-03-24T09:30:18;28.20;40.70
21171;DHT22;10743;52.160;20.910;2023-03-24T09:32:45;28.20;40.90
21171;DHT22;10743;52.160;20.910;2023-03-24T09:35:13;28.40;40.00
21171;DHT22;10743;52.160;20.910;2023-03-24T09:37:41;28.50;39.50
21171;DHT22;10743;52.160;20.910;2023-03-24T09:40:19;28.50;39.70
21171;DHT22;10743;52.160;20.910;2023-03-24T09:43:19;28.70;39.40
21171;DHT22;10743;52.160;20.910;2023-03-24T09:45:50;28.80;39.40
21171;DHT22;10743;52.160;20.910;2023-03-24T09:48:44;28.90;38.90
21171;DHT22;10743;52.160;20.910;2023-03-24T09:51:27;29.10;38.40
21171;DHT22;10743;52.160;20.910;2023-03-24T09:54:25;29.20;37.40
21171;DHT22;10743;52.160;20.910;2023-03-24T09:56:54;29.30;37.70
21171;DHT22;10743;52.160;20.910;2023-03-24T09:59:37;29.40;37.80
21171;DHT22;10743;52.160;20.910;2023-03-24T10:02:13;29.40;37.30
21171;DHT22;10743;52.160;20.910;2023-03-24T10:04:42;29.60;36.20
21171;DHT22;10743;52.160;20.910;2023-03-24T10:07:15;29.50;36.50
21171;DHT22;10743;52.160;20.910;2023-03-24T10:09:52;29.50;36.60
21171;DHT22;10743;52.160;20.910;2023-03-24T10:12:36;29.60;36.40
21171;DHT22;10743;52.160;20.910;2023-03-24T10:18:27;29.60;36.30
21171;DHT22;10743;52.160;20.910;2023-03-24T10:21:19;29.70;36.20
21171;DHT22;10743;52.160;20.910;2023-03-24T10:29:29;29.70;36.40
21171;DHT22;10743;52.160;20.910;2023-03-24T10:34:43;29.90;36.00
21171;DHT22;10743;52.160;20.910;2023-03-24T10:37:13;29.90;35.70
21171;DHT22;10743;52.160;20.910;2023-03-24T10:39:42;29.90;35.70
21171;DHT22;10743;52.160;20.910;2023-03-24T10:42:18;29.90;35.90
21171;DHT22;10743;52.160;20.910;2023-03-24T10:44:51;29.90;35.80
21171;DHT22;10743;52.160;20.910;2023-03-24T10:47:23;29.90;35.70
21171;DHT22;10743;52.160;20.910;2023-03-24T10:50:00;30.00;35.40
21171;DHT22;10743;52.160;20.910;2023-03-24T10:52:42;30.00;35.40
21171;DHT22;10743;52.160;20.910;2023-03-24T10:55:18;29.90;35.80
21171;DHT22;10743;52.160;20.910;2023-03-24T10:57:49;30.00;35.60
21171;DHT22;10743;52.160;20.910;2023-03-24T11:00:25;30.00;35.40
21171;DHT22;10743;52.160;20.910;2023-03-24T11:02:58;30.00;35.50
21171;DHT22;10743;52.160;20.910;2023-03-24T11:05:38;30.00;35.60
21171;DHT22;10743;52.160;20.910;2023-03-24T11:10:43;30.00;35.60
21171;DHT22;10743;52.160;20.910;2023-03-24T11:13:40;30.10;35.40
21171;DHT22;10743;52.160;20.910;2023-03-24T11:16:13;30.20;35.00
21171;DHT22;10743;52.160;20.910;2023-03-24T11:21:23;30.20;35.30
21171;DHT22;10743;52.160;20.910;2023-03-24T11:23:52;30.20;35.20
21171;DHT22;10743;52.160;20.910;2023-03-24T11:26:39;30.20;35.30
21171;DHT22;10743;52.160;20.910;2023-03-24T11:29:15;30.20;35.30
21171;DHT22;10743;52.160;20.910;2023-03-24T11:31:55;30.30;35.10
21171;DHT22;10743;52.160;20.910;2023-03-24T11:34:30;30.30;35.10
21171;DHT22;10743;52.160;20.910;2023-03-24T11:37:07;30.30;35.10
21171;DHT22;10743;52.160;20.910;2023-03-24T11:39:38;30.30;35.10
21171;DHT22;10743;52.160;20.910;2023-03-24T11:47:09;30.30;35.20
21171;DHT22;10743;52.160;20.910;2023-03-24T11:49:56;30.40;35.10
21171;DHT22;10743;52.160;20.910;2023-03-24T11:52:34;30.40;34.90
21171;DHT22;10743;52.160;20.910;2023-03-24T11:55:14;30.40;34.90
21171;DHT22;10743;52.160;20.910;2023-03-24T11:58:09;30.40;35.20
21171;DHT22;10743;52.160;20.910;2023-03-24T12:00:51;30.40;35.10
21171;DHT22;10743;52.160;20.910;2023-03-24T12:03:54;30.40;35.00
21171;DHT22;10743;52.160;20.910;2023-03-24T12:09:56;30.60;34.70
21171;DHT22;10743;52.160;20.910;2023-03-24T12:13:11;30.70;34.10
21171;DHT22;10743;52.160;20.910;2023-03-24T12:27:51;30.80;33.80
21171;DHT22;10743;52.160;20.910;2023-03-24T12:39:31;31.30;33.50
21171;DHT22;10743;52.160;20.910;2023-03-24T12:42:10;31.30;33.10
21171;DHT22;10743;52.160;20.910;2023-03-24T12:51:05;31.50;32.50
21171;DHT22;10743;52.160;20.910;2023-03-24T12:54:33;31.70;32.20
21171;DHT22;10743;52.160;20.910;2023-03-24T12:57:25;31.70;32.20
21171;DHT22;10743;52.160;20.910;2023-03-24T12:59:58;31.80;32.00
21171;DHT22;10743;52.160;20.910;2023-03-24T13:02:44;31.90;31.50
21171;DHT22;10743;52.160;20.910;2023-03-24T13:05:18;32.00;31.70
21171;DHT22;10743;52.160;20.910;2023-03-24T13:07:49;31.90;31.60
21171;DHT22;10743;52.160;20.910;2023-03-24T13:10:26;32.00;32.10
21171;DHT22;10743;52.160;20.910;2023-03-24T13:13:02;32.00;31.60
21171;DHT22;10743;52.160;20.910;2023-03-24T13:15:56;32.20;31.50
21171;DHT22;10743;52.160;20.910;2023-03-24T13:21:22;32.30;31.10
21171;DHT22;10743;52.160;20.910;2023-03-24T13:24:12;32.40;31.10
21171;DHT22;10743;52.160;20.910;2023-03-24T13:27:13;32.40;31.00
21171;DHT22;10743;52.160;20.910;2023-03-24T13:30:03;32.50;30.80
21171;DHT22;10743;52.160;20.910;2023-03-24T13:32:44;32.60;30.50
21171;DHT22;10743;52.160;20.910;2023-03-24T13:35:32;32.70;30.50
21171;DHT22;10743;52.160;20.910;2023-03-24T13:41:03;32.70;30.00
21171;DHT22;10743;52.160;20.910;2023-03-24T13:43:33;32.70;30.00
21171;DHT22;10743;52.160;20.910;2023-03-24T13:46:11;32.70;30.00
21171;DHT22;10743;52.160;20.910;2023-03-24T13:48:41;32.70;30.10
21171;DHT22;10743;52.160;20.910;2023-03-24T13:53:55;32.70;30.10
21171;DHT22;10743;52.160;20.910;2023-03-24T13:56:36;32.70;30.10
21171;DHT22;10743;52.160;20.910;2023-03-24T13:59:29;32.70;30.00
21171;DHT22;10743;52.160;20.910;2023-03-24T14:02:19;32.80;29.90
21171;DHT22;10743;52.160;20.910;2023-03-24T14:21:07;32.80;29.60
21171;DHT22;10743;52.160;20.910;2023-03-24T14:23:47;32.70;29.80
21171;DHT22;10743;52.160;20.910;2023-03-24T14:28:50;32.70;29.90
21171;DHT22;10743;52.160;20.910;2023-03-24T14:31:22;32.70;29.80
21171;DHT22;10743;52.160;20.910;2023-03-24T14:36:34;32.70;30.00
21171;DHT22;10743;52.160;20.910;2023-03-24T14:41:44;32.80;29.90
21171;DHT22;10743;52.160;20.910;2023-03-24T14:44:12;32.90;29.50
21171;DHT22;10743;52.160;20.910;2023-03-24T14:49:26;32.90;29.90
21171;DHT22;10743;52.160;20.910;2023-03-24T14:55:22;32.90;29.70
21171;DHT22;10743;52.160;20.910;2023-03-24T14:57:55;33.00;29.50
21171;DHT22;10743;52.160;20.910;2023-03-24T15:00:40;33.00;29.40
21171;DHT22;10743;52.160;20.910;2023-03-24T15:06:18;33.00;29.20
21171;DHT22;10743;52.160;20.910;2023-03-24T15:08:51;33.00;29.20
21171;DHT22;10743;52.160;20.910;2023-03-24T15:11:29;33.00;29.40
21171;DHT22;10743;52.160;20.910;2023-03-24T15:14:02;33.00;29.30
21171;DHT22;10743;52.160;20.910;2023-03-24T15:16:35;33.10;29.40
21171;DHT22;10743;52.160;20.910;2023-03-24T15:19:08;33.00;29.40
21171;DHT22;10743;52.160;20.910;2023-03-24T15:22:00;33.00;29.30
21171;DHT22;10743;52.160;20.910;2023-03-24T15:24:34;32.90;29.40
21171;DHT22;10743;52.160;20.910;2023-03-24T15:29:36;33.00;29.20
21171;DHT22;10743;52.160;20.910;2023-03-24T15:32:05;32.90;29.40
21171;DHT22;10743;52.160;20.910;2023-03-24T15:37:02;32.80;29.50
21171;DHT22;10743;52.160;20.910;2023-03-24T15:39:35;32.90;29.30
21171;DHT22;10743;52.160;20.910;2023-03-24T15:42:05;32.80;29.30
21171;DHT22;10743;52.160;20.910;2023-03-24T15:44:39;32.80;29.40
21171;DHT22;10743;52.160;20.910;2023-03-24T15:47:24;32.70;29.40
21171;DHT22;10743;52.160;20.910;2023-03-24T15:49:59;32.80;29.30
21171;DHT22;10743;52.160;20.910;2023-03-24T15:52:35;32.70;29.40
21171;DHT22;10743;52.160;20.910;2023-03-24T15:55:23;32.70;29.60
21171;DHT22;10743;52.160;20.910;2023-03-24T16:00:52;32.60;29.70
21171;DHT22;10743;52.160;20.910;2023-03-24T16:03:21;32.60;29.80
21171;DHT22;10743;52.160;20.910;2023-03-24T16:05:54;32.50;30.00
21171;DHT22;10743;52.160;20.910;2023-03-24T16:11:07;32.50;29.90
21171;DHT22;10743;52.160;20.910;2023-03-24T16:13:39;32.40;29.90
21171;DHT22;10743;52.160;20.910;2023-03-24T16:18:45;32.40;30.00
21171;DHT22;10743;52.160;20.910;2023-03-24T16:21:19;32.40;30.00
21171;DHT22;10743;52.160;20.910;2023-03-24T16:23:49;32.30;30.10
21171;DHT22;10743;52.160;20.910;2023-03-24T16:26:26;32.30;30.10
21171;DHT22;10743;52.160;20.910;2023-03-24T16:28:59;32.20;30.10
21171;DHT22;10743;52.160;20.910;2023-03-24T16:31:34;32.20;30.40
21171;DHT22;10743;52.160;20.910;2023-03-24T16:34:01;32.10;30.50
21171;DHT22;10743;52.160;20.910;2023-03-24T16:36:28;32.20;30.60
21171;DHT22;10743;52.160;20.910;2023-03-24T16:38:57;32.20;31.00
21171;DHT22;10743;52.160;20.910;2023-03-24T16:41:25;32.00;31.30
21171;DHT22;10743;52.160;20.910;2023-03-24T16:43:52;32.00;31.50
21171;DHT22;10743;52.160;20.910;2023-03-24T16:46:30;31.90;31.60
21171;DHT22;10743;52.160;20.910;2023-03-24T16:49:00;32.00;31.60
21171;DHT22;10743;52.160;20.910;2023-03-24T16:51:29;31.80;31.80
21171;DHT22;10743;52.160;20.910;2023-03-24T16:53:56;31.80;32.10
21171;DHT22;10743;52.160;20.910;2023-03-24T16:56:24;31.70;32.30
21171;DHT22;10743;52.160;20.910;2023-03-24T16:58:52;31.70;32.60
21171;DHT22;10743;52.160;20.910;2023-03-24T17:01:36;31.60;33.00
21171;DHT22;10743;52.160;20.910;2023-03-24T17:04:16;31.60;33.20
21171;DHT22;10743;52.160;20.910;2023-03-24T17:06:47;31.50;33.50
21171;DHT22;10743;52.160;20.910;2023-03-24T17:09:16;31.40;33.80
21171;DHT22;10743;52.160;20.910;2023-03-24T17:11:52;31.40;34.10
21171;DHT22;10743;52.160;20.910;2023-03-24T17:14:21;31.30;34.90
21171;DHT22;10743;52.160;20.910;2023-03-24T17:16:48;31.30;35.50
21171;DHT22;10743;52.160;20.910;2023-03-24T17:19:20;31.30;35.90
21171;DHT22;10743;52.160;20.910;2023-03-24T17:22:00;31.20;36.90
21171;DHT22;10743;52.160;20.910;2023-03-24T17:24:32;31.20;37.00
21171;DHT22;10743;52.160;20.910;2023-03-24T17:27:09;31.10;37.10
21171;DHT22;10743;52.160;20.910;2023-03-24T17:29:39;31.10;37.80
21171;DHT22;10743;52.160;20.910;2023-03-24T17:32:07;31.00;37.90
21171;DHT22;10743;52.160;20.910;2023-03-24T17:34:34;30.90;38.90
21171;DHT22;10743;52.160;20.910;2023-03-24T17:37:00;30.90;38.50
21171;DHT22;10743;52.160;20.910;2023-03-24T17:39:27;30.80;38.50
21171;DHT22;10743;52.160;20.910;2023-03-24T17:41:54;30.70;38.70
21171;DHT22;10743;52.160;20.910;2023-03-24T17:44:25;30.60;38.90
21171;DHT22;10743;52.160;20.910;2023-03-24T17:46:52;30.60;39.20
21171;DHT22;10743;52.160;20.910;2023-03-24T17:49:19;30.50;39.30
21171;DHT22;10743;52.160;20.910;2023-03-24T17:51:47;30.50;39.60
21171;DHT22;10743;52.160;20.910;2023-03-24T17:54:14;30.40;39.60
21171;DHT22;10743;52.160;20.910;2023-03-24T17:56:45;30.40;39.70
21171;DHT22;10743;52.160;20.910;2023-03-24T17:59:12;30.30;39.90
21171;DHT22;10743;52.160;20.910;2023-03-24T18:01:39;30.30;39.90
21171;DHT22;10743;52.160;20.910;2023-03-24T18:04:06;30.10;39.80
21171;DHT22;10743;52.160;20.910;2023-03-24T18:06:33;30.10;40.10
21171;DHT22;10743;52.160;20.910;2023-03-24T18:09:00;30.00;40.20
21171;DHT22;10743;52.160;20.910;2023-03-24T18:11:27;29.90;40.30
21171;DHT22;10743;52.160;20.910;2023-03-24T18:13:55;29.90;40.40
21171;DHT22;10743;52.160;20.910;2023-03-24T18:16:22;29.80;40.50
21171;DHT22;10743;52.160;20.910;2023-03-24T18:18:50;29.70;40.60
21171;DHT22;10743;52.160;20.910;2023-03-24T18:21:18;29.70;40.70
21171;DHT22;10743;52.160;20.910;2023-03-24T18:23:45;29.50;40.70
21171;DHT22;10743;52.160;20.910;2023-03-24T18:26:14;29.50;40.90
21171;DHT22;10743;52.160;20.910;2023-03-24T18:28:44;29.50;41.00
21171;DHT22;10743;52.160;20.910;2023-03-24T18:31:16;29.40;41.00
21171;DHT22;10743;52.160;20.910;2023-03-24T18:33:48;29.40;41.00
21171;DHT22;10743;52.160;20.910;2023-03-24T18:36:17;29.40;41.10
21171;DHT22;10743;52.160;20.910;2023-03-24T18:38:59;29.30;41.00
21171;DHT22;10743;52.160;20.910;2023-03-24T18:41:28;29.30;41.20
21171;DHT22;10743;52.160;20.910;2023-03-24T18:43:57;29.30;41.20
21171;DHT22;10743;52.160;20.910;2023-03-24T18:46:25;29.30;41.30
21171;DHT22;10743;52.160;20.910;2023-03-24T18:48:53;29.20;41.20
21171;DHT22;10743;52.160;20.910;2023-03-24T18:51:21;29.20;41.40
21171;DHT22;10743;52.160;20.910;2023-03-24T18:53:49;29.20;41.40
21171;DHT22;10743;52.160;20.910;2023-03-24T18:56:18;29.20;41.40
21171;DHT22;10743;52.160;20.910;2023-03-24T18:58:46;29.20;41.50
21171;DHT22;10743;52.160;20.910;2023-03-24T19:01:17;29.10;41.60
21171;DHT22;10743;52.160;20.910;2023-03-24T19:03:49;29.10;41.50
21171;DHT22;10743;52.160;20.910;2023-03-24T19:06:18;29.10;41.70
21171;DHT22;10743;52.160;20.910;2023-03-24T19:08:49;29.00;41.70
21171;DHT22;10743;52.160;20.910;2023-03-24T19:11:17;29.00;41.60
21171;DHT22;10743;52.160;20.910;2023-03-24T19:13:44;29.00;41.60
21171;DHT22;10743;52.160;20.910;2023-03-24T19:16:12;29.00;41.70
21171;DHT22;10743;52.160;20.910;2023-03-24T19:18:41;29.00;41.70
21171;DHT22;10743;52.160;20.910;2023-03-24T19:21:08;29.00;41.60
21171;DHT22;10743;52.160;20.910;2023-03-24T19:23:35;28.90;41.60
21171;DHT22;10743;52.160;20.910;2023-03-24T19:26:03;28.90;41.70
21171;DHT22;10743;52.160;20.910;2023-03-24T19:28:31;28.90;41.70
21171;DHT22;10743;52.160;20.910;2023-03-24T19:31:06;28.90;41.70
21171;DHT22;10743;52.160;20.910;2023-03-24T19:33:36;28.90;41.70
21171;DHT22;10743;52.160;20.910;2023-03-24T19:36:04;28.80;41.60
21171;DHT22;10743;52.160;20.910;2023-03-24T19:38:34;28.80;41.70
21171;DHT22;10743;52.160;20.910;2023-03-24T19:41:07;28.70;41.80
21171;DHT22;10743;52.160;20.910;2023-03-24T19:43:37;28.70;41.80
21171;DHT22;10743;52.160;20.910;2023-03-24T19:46:05;28.80;41.60
21171;DHT22;10743;52.160;20.910;2023-03-24T19:48:33;28.80;41.50
21171;DHT22;10743;52.160;20.910;2023-03-24T19:51:01;28.80;41.50
21171;DHT22;10743;52.160;20.910;2023-03-24T19:53:29;28.80;41.40
21171;DHT22;10743;52.160;20.910;2023-03-24T19:55:58;28.80;41.40
21171;DHT22;10743;52.160;20.910;2023-03-24T19:58:25;28.80;41.40
21171;DHT22;10743;52.160;20.910;2023-03-24T20:00:52;28.80;41.40
21171;DHT22;10743;52.160;20.910;2023-03-24T20:03:19;28.70;41.30
21171;DHT22;10743;52.160;20.910;2023-03-24T20:05:48;28.80;41.30